createdAt,value
2022-11-02T00:01:29.940Z,100987.22
2022-11-02T00:03:56.742Z,100990.72
2022-11-02T00:06:23.373Z,100995.78
2022-11-02T00:08:50.021Z,100995.94
2022-11-02T00:11:16.658Z,100993.47
2022-11-02T00:13:43.333Z,100998.78
2022-11-02T00:16:12.034Z,100998.59
2022-11-02T00:18:39.272Z,100991.19
2022-11-02T00:21:06.047Z,100998.91
2022-11-02T00:23:32.720Z,100996.31
2022-11-02T00:26:02.480Z,100988.06
2022-11-02T00:28:30.579Z,100992.53
2022-11-02T00:30:58.023Z,100989.94
2022-11-02T00:33:26.294Z,100994.63
2022-11-02T00:35:54.245Z,100996.50
2022-11-02T00:38:20.961Z,101001.25
2022-11-02T00:40:47.651Z,100992.53
2022-11-02T00:43:14.435Z,100997.75
2022-11-02T00:45:41.092Z,100995.19
2022-11-02T00:48:07.887Z,101001.56
2022-11-02T00:50:34.771Z,100996.03
2022-11-02T00:53:01.642Z,100992.69
2022-11-02T00:55:28.469Z,101001.44
2022-11-02T00:58:00.118Z,100997.84
2022-11-02T01:00:27.002Z,100996.81
2022-11-02T01:02:53.643Z,101001.16
2022-11-02T01:05:20.334Z,100996.22
2022-11-02T01:07:47.869Z,100993.34
2022-11-02T01:10:17.124Z,100998.78
2022-11-02T01:12:43.790Z,100999.63
2022-11-02T01:15:10.932Z,100986.41
2022-11-02T01:17:38.286Z,100987.94
2022-11-02T01:20:06.146Z,100983.59
2022-11-02T01:22:32.862Z,100989.94
2022-11-02T01:24:59.537Z,100984.78
2022-11-02T01:27:26.539Z,100996.47
2022-11-02T01:29:53.274Z,101000.09
2022-11-02T01:32:20.013Z,101001.88
2022-11-02T01:34:46.692Z,101000.09
2022-11-02T01:37:15.335Z,101000.16
2022-11-02T01:39:42.003Z,101007.31
2022-11-02T01:42:28.201Z,101010.81
2022-11-02T01:44:56.395Z,100993.06
2022-11-02T01:47:29.492Z,100995.72
2022-11-02T01:50:03.228Z,100986.88
2022-11-02T01:52:34.697Z,100982.53
2022-11-02T01:55:07.094Z,100973.88
2022-11-02T01:57:35.618Z,100968.34
2022-11-02T02:00:08.116Z,100970.25
2022-11-02T02:03:03.865Z,100971.41
2022-11-02T02:05:33.662Z,100971.41
2022-11-02T02:08:02.435Z,100968.75
2022-11-02T02:10:30.892Z,100964.47
2022-11-02T02:12:57.559Z,100963.59
2022-11-02T02:15:25.806Z,100967.28
2022-11-02T02:17:58.446Z,100966.63
2022-11-02T02:20:40.040Z,100967.47
2022-11-02T02:23:26.624Z,100957.09
2022-11-02T02:26:15.239Z,100969.66
2022-11-02T02:28:47.549Z,100961.69
2022-11-02T02:31:36.488Z,100971.38
2022-11-02T02:34:12.603Z,100966.22
2022-11-02T02:36:51.762Z,100963.84
2022-11-02T02:39:33.529Z,100955.09
2022-11-02T02:42:13.922Z,100960.69
2022-11-02T02:44:43.583Z,100956.50
2022-11-02T02:47:18.894Z,100953.25
2022-11-02T02:49:50.311Z,100958.38
2022-11-02T02:52:18.521Z,100947.84
2022-11-02T02:54:46.754Z,100953.25
2022-11-02T02:57:15.359Z,100951.63
2022-11-02T02:59:43.874Z,100949.81
2022-11-02T03:02:14.357Z,100955.88
2022-11-02T03:04:41.154Z,100950.19
2022-11-02T03:07:10.267Z,100944.88
2022-11-02T03:09:41.649Z,100959.88
2022-11-02T03:12:46.952Z,100958.44
2022-11-02T03:15:28.688Z,100952.63
2022-11-02T03:18:16.956Z,100940.19
2022-11-02T03:21:16.860Z,100938.59
2022-11-02T03:24:22.509Z,100946.56
2022-11-02T03:27:28.082Z,100945.97
2022-11-02T03:30:01.135Z,100942.19
2022-11-02T03:32:39.276Z,100950.41
2022-11-02T03:35:15.702Z,100954.78
2022-11-02T03:37:48.637Z,100951.44
2022-11-02T03:40:20.388Z,100952.31
2022-11-02T03:42:49.003Z,100940.06
2022-11-02T03:45:19.054Z,100948.19
2022-11-02T03:47:50.338Z,100946.31
2022-11-02T03:50:20.812Z,100943.84
2022-11-02T03:52:52.095Z,100957.13
2022-11-02T03:55:20.733Z,100950.09
2022-11-02T03:57:50.192Z,100956.44
2022-11-02T04:00:22.339Z,100953.88
2022-11-02T04:02:58.987Z,100951.22
2022-11-02T04:05:35.013Z,100957.53
2022-11-02T04:08:21.595Z,100952.66
2022-11-02T04:11:12.415Z,100965.00
2022-11-02T04:13:59.525Z,100953.50
2022-11-02T04:16:29.666Z,100959.69
2022-11-02T04:19:17.834Z,100955.41
2022-11-02T04:22:05.426Z,100957.28
2022-11-02T04:24:53.238Z,100948.66
2022-11-02T04:27:21.320Z,100954.53
2022-11-02T04:29:49.468Z,100942.13
2022-11-02T04:32:37.415Z,100935.88
2022-11-02T04:35:06.743Z,100941.34
2022-11-02T04:37:59.793Z,100940.69
2022-11-02T04:40:28.902Z,100941.72
2022-11-02T04:42:56.230Z,100944.81
2022-11-02T04:45:22.962Z,100942.25
2022-11-02T04:47:49.786Z,100948.22
2022-11-02T04:50:17.467Z,100944.94
2022-11-02T04:53:01.045Z,100941.44
2022-11-02T04:55:36.395Z,100955.66
2022-11-02T04:58:15.191Z,100954.81
2022-11-02T05:00:45.065Z,100950.63
2022-11-02T05:03:12.999Z,100953.38
2022-11-02T05:05:41.392Z,100946.34
2022-11-02T05:08:08.190Z,100945.56
2022-11-02T05:10:36.804Z,100951.78
2022-11-02T05:13:04.758Z,100952.66
2022-11-02T05:15:34.406Z,100950.03
2022-11-02T05:18:05.085Z,100950.94
2022-11-02T05:20:33.328Z,100956.34
2022-11-02T05:23:00.120Z,100947.19
2022-11-02T05:25:26.865Z,100956.09
2022-11-02T05:27:57.183Z,100952.75
2022-11-02T05:30:24.304Z,100949.41
2022-11-02T05:32:56.021Z,100952.84
2022-11-02T05:35:22.754Z,100957.38
2022-11-02T05:37:55.516Z,100963.53
2022-11-02T05:40:29.416Z,100948.63
2022-11-02T05:43:00.988Z,100951.88
2022-11-02T05:45:28.340Z,100949.22
2022-11-02T05:47:56.123Z,100949.41
2022-11-02T05:50:23.110Z,100961.91
2022-11-02T05:52:56.163Z,100957.69
2022-11-02T05:55:23.688Z,100959.56
2022-11-02T05:57:53.722Z,100959.56
2022-11-02T06:00:21.670Z,100959.72
2022-11-02T06:02:49.191Z,100957.06
2022-11-02T06:05:16.348Z,100951.84
2022-11-02T06:07:43.069Z,100950.13
2022-11-02T06:10:10.011Z,100955.38
2022-11-02T06:12:39.412Z,100951.84
2022-11-02T06:15:06.729Z,100962.38
2022-11-02T06:17:40.607Z,100964.19
2022-11-02T06:20:08.690Z,100954.19
2022-11-02T06:22:40.304Z,100957.75
2022-11-02T06:25:10.358Z,100964.88
2022-11-02T06:27:57.856Z,100968.88
2022-11-02T06:30:29.188Z,100958.16
2022-11-02T06:32:56.328Z,100958.03
2022-11-02T06:35:23.705Z,100973.16
2022-11-02T06:38:01.105Z,100976.50
2022-11-02T06:40:28.406Z,100975.72
2022-11-02T06:43:17.027Z,100972.84
2022-11-02T06:45:47.976Z,100965.66
2022-11-02T06:48:15.316Z,100986.56
2022-11-02T06:50:48.017Z,100975.25
2022-11-02T06:53:21.160Z,100972.59
2022-11-02T06:56:00.334Z,100981.34
2022-11-02T06:58:31.144Z,100989.03
2022-11-02T07:01:03.884Z,100994.63
2022-11-02T07:03:34.640Z,100996.16
2022-11-02T07:06:11.242Z,100998.50
2022-11-02T07:08:40.889Z,100994.81
2022-11-02T07:11:33.488Z,100991.66
2022-11-02T07:17:32.034Z,100996.69
2022-11-02T07:20:16.897Z,100981.59
2022-11-02T07:23:05.575Z,100986.06
2022-11-02T07:25:33.618Z,100984.88
2022-11-02T07:28:01.577Z,100987.19
2022-11-02T07:30:29.504Z,100982.66
2022-11-02T07:32:56.520Z,100996.50
2022-11-02T07:35:26.651Z,100979.63
2022-11-02T07:38:01.834Z,100979.41
2022-11-02T07:40:29.780Z,100990.69
2022-11-02T07:42:57.897Z,100993.94
2022-11-02T07:45:37.770Z,100994.53
2022-11-02T07:48:04.658Z,100997.53
2022-11-02T07:50:32.023Z,101006.00
2022-11-02T07:53:00.821Z,101000.91
2022-11-02T07:55:29.551Z,100992.50
2022-11-02T07:58:04.200Z,100995.75
2022-11-02T08:00:34.275Z,101000.31
2022-11-02T08:03:02.642Z,100997.22
2022-11-02T08:05:40.565Z,101003.88
2022-11-02T08:08:11.709Z,100998.19
2022-11-02T08:10:40.337Z,100999.56
2022-11-02T08:13:10.024Z,100999.34
2022-11-02T08:15:37.651Z,101004.66
2022-11-02T08:18:07.171Z,100991.19
2022-11-02T08:20:35.182Z,101000.59
2022-11-02T08:23:02.483Z,101008.59
2022-11-02T08:25:29.326Z,100996.97
2022-11-02T08:27:58.613Z,100998.13
2022-11-02T08:30:30.223Z,101001.38
2022-11-02T08:33:08.876Z,101001.06
2022-11-02T08:35:37.778Z,101001.06
2022-11-02T08:38:05.759Z,101003.50
2022-11-02T08:40:32.931Z,101005.09
2022-11-02T08:43:01.256Z,101003.13
2022-11-02T08:45:32.309Z,100999.88
2022-11-02T08:48:07.367Z,100991.38
2022-11-02T08:50:39.067Z,101002.81
2022-11-02T08:53:06.295Z,100987.78
2022-11-02T08:55:33.355Z,100986.84
2022-11-02T08:58:03.012Z,100991.22
2022-11-02T09:00:36.217Z,100994.81
2022-11-02T09:03:11.297Z,100997.78
2022-11-02T09:05:40.974Z,100992.75
2022-11-02T09:08:11.734Z,100984.75
2022-11-02T09:10:38.501Z,100990.75
2022-11-02T09:13:07.768Z,100991.22
2022-11-02T09:15:36.663Z,100987.22
2022-11-02T09:18:20.279Z,100997.88
2022-11-02T09:20:48.683Z,101000.47
2022-11-02T09:23:17.287Z,100996.34
2022-11-02T09:25:44.448Z,100995.41
2022-11-02T09:28:11.551Z,100993.09
2022-11-02T09:30:40.079Z,100989.94
2022-11-02T09:33:11.697Z,100998.19
2022-11-02T09:35:41.517Z,101001.53
2022-11-02T09:38:08.218Z,101003.34
2022-11-02T09:41:25.159Z,101001.03
2022-11-02T09:44:06.279Z,100998.72
2022-11-02T09:46:40.580Z,100995.66
2022-11-02T09:49:20.957Z,101001.53
2022-11-02T09:51:49.267Z,101000.81
2022-11-02T09:54:26.040Z,101006.59
2022-11-02T09:56:58.906Z,101017.72
2022-11-02T09:59:26.650Z,101007.28
2022-11-02T10:02:15.445Z,101015.00
2022-11-02T10:05:07.261Z,101010.94
2022-11-02T10:07:52.705Z,101009.69
2022-11-02T10:11:10.949Z,101008.84
2022-11-02T10:13:54.162Z,100999.28
2022-11-02T10:16:39.561Z,100999.50
2022-11-02T10:19:12.462Z,100997.91
2022-11-02T10:21:39.690Z,101001.84
2022-11-02T10:24:18.706Z,101003.22
2022-11-02T10:26:45.379Z,101004.41
2022-11-02T10:29:30.322Z,101014.53
2022-11-02T10:31:57.056Z,101010.56
2022-11-02T10:34:27.938Z,101001.72
2022-11-02T10:37:19.541Z,101003.38
2022-11-02T10:39:59.606Z,101004.31
2022-11-02T10:43:04.077Z,101003.75
2022-11-02T10:45:44.367Z,101001.19
2022-11-02T10:48:40.478Z,101000.44
2022-11-02T10:51:09.768Z,100994.53
2022-11-02T10:53:41.845Z,101002.31
2022-11-02T10:56:21.606Z,101003.81
2022-11-02T10:58:54.277Z,101013.22
2022-11-02T11:01:21.042Z,101015.28
2022-11-02T11:03:57.976Z,101015.94
2022-11-02T11:06:44.935Z,101027.97
2022-11-02T11:09:20.486Z,101027.03
2022-11-02T11:12:02.313Z,101043.31
2022-11-02T11:20:35.773Z,101017.81
2022-11-02T11:23:22.111Z,101027.03
2022-11-02T11:25:57.693Z,101038.91
2022-11-02T11:29:57.412Z,101041.75
2022-11-02T11:32:30.146Z,101048.69
2022-11-02T11:35:03.941Z,101037.78
2022-11-02T11:37:31.328Z,101031.13
2022-11-02T11:40:04.695Z,101037.19
2022-11-02T11:42:34.825Z,101031.13
2022-11-02T11:45:05.904Z,101032.84
2022-11-02T11:47:36.468Z,101015.09
2022-11-02T11:50:16.273Z,101048.88
2022-11-02T11:52:45.055Z,101034.75
2022-11-02T11:55:27.015Z,101019.78
2022-11-02T11:58:20.363Z,101026.66
2022-11-02T12:01:09.351Z,101024.00
2022-11-02T12:03:57.329Z,101028.63
2022-11-02T12:06:31.649Z,101019.63
2022-11-02T12:09:05.974Z,101028.38
2022-11-02T12:11:48.044Z,101033.97
2022-11-02T12:14:27.321Z,101026.56
2022-11-02T12:17:06.731Z,101012.34
2022-11-02T12:19:45.534Z,101005.28
2022-11-02T12:22:30.292Z,101005.28
2022-11-02T12:25:05.930Z,101021.94
2022-11-02T12:27:41.749Z,101010.53
2022-11-02T12:30:22.143Z,101023.56
2022-11-02T12:32:55.706Z,101020.88
2022-11-02T12:35:44.648Z,101019.91
2022-11-02T12:38:29.797Z,101012.00
2022-11-02T12:41:18.544Z,101015.53
2022-11-02T12:43:47.462Z,101021.84
2022-11-02T12:46:22.998Z,100995.09
2022-11-02T12:49:15.419Z,101012.13
2022-11-02T12:51:51.670Z,101017.88
2022-11-02T12:54:22.201Z,101022.03
2022-11-02T12:56:50.840Z,101021.03
2022-11-02T12:59:29.151Z,101007.78
2022-11-02T13:02:10.403Z,101018.78
2022-11-02T13:04:52.899Z,101017.78
2022-11-02T13:07:26.190Z,101027.91
2022-11-02T13:09:59.605Z,101021.28
2022-11-02T13:12:27.047Z,101025.84
2022-11-02T13:14:56.119Z,101025.44
2022-11-02T13:17:27.567Z,101026.44
2022-11-02T13:19:59.591Z,101033.06
2022-11-02T13:22:31.121Z,101034.75
2022-11-02T13:25:05.289Z,101040.19
2022-11-02T13:27:37.189Z,101058.88
2022-11-02T13:30:14.434Z,101055.38
2022-11-02T13:32:44.529Z,101047.84
2022-11-02T13:35:17.062Z,101044.41
2022-11-02T13:37:48.498Z,101036.63
2022-11-02T13:40:22.664Z,101053.47
2022-11-02T13:42:58.185Z,101046.31
2022-11-02T13:48:07.153Z,101036.78
2022-11-02T13:50:39.950Z,101037.88
2022-11-02T13:53:08.961Z,101051.88
2022-11-02T13:55:48.135Z,101037.28
2022-11-02T13:58:22.851Z,101034.34
2022-11-02T14:00:49.869Z,101055.56
2022-11-02T14:03:22.893Z,101037.31
2022-11-02T14:05:53.874Z,101027.94
2022-11-02T14:08:36.440Z,101039.88
2022-11-02T14:11:24.892Z,101031.09
2022-11-02T14:13:54.972Z,101041.56
2022-11-02T14:16:46.161Z,101055.19
2022-11-02T14:19:34.408Z,101054.69
2022-11-02T14:22:01.038Z,101044.97
2022-11-02T14:24:33.974Z,101065.78
2022-11-02T14:27:02.479Z,101057.25
2022-11-02T14:29:51.625Z,101055.94
2022-11-02T14:32:21.344Z,101062.13
2022-11-02T14:35:22.285Z,101069.31
2022-11-02T14:38:01.231Z,101080.88
2022-11-02T14:40:31.961Z,101088.59
2022-11-02T14:43:03.141Z,101078.84
2022-11-02T14:45:41.352Z,101098.75
2022-11-02T14:48:14.298Z,101075.81
2022-11-02T14:50:41.025Z,101093.31
2022-11-02T14:53:09.906Z,101099.34
2022-11-02T14:55:37.581Z,101094.84
2022-11-02T14:58:11.025Z,101106.19
2022-11-02T15:00:47.428Z,101109.53
2022-11-02T15:03:34.494Z,101122.06
2022-11-02T15:06:22.808Z,101112.91
2022-11-02T15:08:59.579Z,101120.50
2022-11-02T15:11:45.163Z,101120.41
2022-11-02T15:14:37.971Z,101125.22
2022-11-02T15:17:10.446Z,101126.28
2022-11-02T15:19:47.237Z,101124.91
2022-11-02T15:23:08.794Z,101145.72
2022-11-02T15:25:37.754Z,101128.84
2022-11-02T15:28:08.185Z,101136.66
2022-11-02T15:30:42.582Z,101135.25
2022-11-02T15:33:17.299Z,101138.47
2022-11-02T15:35:44.434Z,101135.91
2022-11-02T15:38:18.550Z,101137.38
2022-11-02T15:40:49.316Z,101139.63
2022-11-02T15:43:29.663Z,101138.31
2022-11-02T15:46:08.262Z,101143.88
2022-11-02T15:48:51.385Z,101151.44
2022-11-02T15:51:25.011Z,101151.63
2022-11-02T15:53:54.723Z,101154.69
2022-11-02T15:56:43.171Z,101152.41
2022-11-02T15:59:44.587Z,101156.75
2022-11-02T16:09:44.573Z,101171.91
2022-11-02T16:15:35.471Z,101157.16
2022-11-02T16:23:02.718Z,101172.16
2022-11-02T16:25:46.577Z,101177.91
2022-11-02T16:28:33.275Z,101187.22
2022-11-02T16:31:18.512Z,101184.47
2022-11-02T16:33:50.547Z,101188.09
2022-11-02T16:36:20.418Z,101179.13
2022-11-02T16:38:57.731Z,101184.00
2022-11-02T16:41:29.957Z,101182.38
2022-11-02T16:43:58.281Z,101190.00
2022-11-02T16:46:31.118Z,101192.47
2022-11-02T16:49:07.796Z,101197.44
2022-11-02T16:51:37.532Z,101195.63
2022-11-02T16:54:25.479Z,101197.81
2022-11-02T16:56:53.068Z,101204.19
2022-11-02T16:59:21.494Z,101204.47
2022-11-02T17:01:48.397Z,101212.56
2022-11-02T17:04:25.140Z,101209.13
2022-11-02T17:06:54.969Z,101215.00
2022-11-02T17:09:29.840Z,101210.91
2022-11-02T17:11:59.306Z,101219.22
2022-11-02T17:14:27.000Z,101216.44
2022-11-02T17:16:59.803Z,101214.16
2022-11-02T17:19:41.489Z,101211.78
2022-11-02T17:22:15.885Z,101226.78
2022-11-02T17:24:42.865Z,101226.13
2022-11-02T17:27:27.384Z,101231.03
2022-11-02T17:29:57.521Z,101222.97
2022-11-02T17:32:24.325Z,101220.56
2022-11-02T17:34:56.622Z,101233.28
2022-11-02T17:37:30.698Z,101231.50
2022-11-02T17:40:00.764Z,101238.81
2022-11-02T17:42:46.620Z,101242.41
2022-11-02T17:45:30.093Z,101243.53
2022-11-02T17:47:58.249Z,101241.28
2022-11-02T17:50:26.372Z,101245.56
2022-11-02T17:52:53.364Z,101240.69
2022-11-02T17:55:27.283Z,101241.28
2022-11-02T17:57:55.461Z,101247.47
2022-11-02T18:00:23.365Z,101252.81
2022-11-02T18:02:52.383Z,101245.16
2022-11-02T18:05:23.899Z,101254.00
2022-11-02T18:07:51.119Z,101253.59
2022-11-02T18:10:19.130Z,101253.91
2022-11-02T18:12:45.918Z,101262.84
2022-11-02T18:15:17.549Z,101266.38
2022-11-02T18:17:44.256Z,101271.50
2022-11-02T18:20:12.068Z,101260.19
2022-11-02T18:22:39.008Z,101263.97
2022-11-02T18:25:11.370Z,101266.56
2022-11-02T18:27:38.883Z,101266.47
2022-11-02T18:30:07.376Z,101263.91
2022-11-02T18:32:38.230Z,101265.44
2022-11-02T18:35:05.426Z,101273.16
2022-11-02T18:37:32.700Z,101269.31
2022-11-02T18:39:59.491Z,101272.72
2022-11-02T18:42:26.242Z,101272.31
2022-11-02T18:44:52.961Z,101262.88
2022-11-02T18:47:19.724Z,101270.88
2022-11-02T18:49:46.420Z,101266.06
2022-11-02T18:52:18.332Z,101282.03
2022-11-02T18:54:48.911Z,101277.44
2022-11-02T18:57:15.821Z,101288.88
2022-11-02T18:59:42.739Z,101279.16
2022-11-02T19:02:10.110Z,101284.25
2022-11-02T19:04:36.963Z,101281.00
2022-11-02T19:07:22.506Z,101280.09
2022-11-02T19:09:49.199Z,101280.47
2022-11-02T19:12:19.047Z,101284.06
2022-11-02T19:14:47.149Z,101285.72
2022-11-02T19:17:14.963Z,101285.94
2022-11-02T19:19:43.380Z,101289.50
2022-11-02T19:22:13.794Z,101282.69
2022-11-02T19:24:40.993Z,101279.00
2022-11-02T19:27:12.546Z,101300.88
2022-11-02T19:29:39.210Z,101285.09
2022-11-02T19:32:05.893Z,101295.75
2022-11-02T19:34:33.881Z,101280.81
2022-11-02T19:37:00.862Z,101286.03
2022-11-02T19:39:27.685Z,101290.44
2022-11-02T19:41:54.493Z,101294.31
2022-11-02T19:44:21.511Z,101287.16
2022-11-02T19:46:48.193Z,101285.63
2022-11-02T19:49:14.930Z,101289.41
2022-11-02T19:51:41.646Z,101286.97
2022-11-02T19:54:10.837Z,101298.31
2022-11-02T19:56:37.795Z,101299.44
2022-11-02T19:59:05.651Z,101306.63
2022-11-02T20:01:42.535Z,101294.63
2022-11-02T20:04:10.262Z,101297.38
2022-11-02T20:06:39.520Z,101297.38
2022-11-02T20:09:08.607Z,101301.50
2022-11-02T20:11:36.294Z,101304.84
2022-11-02T20:14:05.274Z,101306.81
2022-11-02T20:16:31.990Z,101298.84
2022-11-02T20:18:59.471Z,101298.91
2022-11-02T20:21:35.463Z,101293.59
2022-11-02T20:24:05.349Z,101303.13
2022-11-02T20:26:34.798Z,101303.44
2022-11-02T20:29:03.566Z,101302.00
2022-11-02T20:31:36.175Z,101304.84
2022-11-02T20:34:04.836Z,101297.97
2022-11-02T20:36:31.646Z,101299.50
2022-11-02T20:38:58.713Z,101305.06
2022-11-02T20:41:26.215Z,101303.34
2022-11-02T20:43:55.603Z,101309.69
2022-11-02T20:46:41.545Z,101316.38
2022-11-02T20:49:20.906Z,101310.03
2022-11-02T20:51:52.959Z,101311.50
2022-11-02T20:54:20.955Z,101312.84
2022-11-02T20:56:48.727Z,101322.44
2022-11-02T20:59:15.572Z,101326.88
2022-11-02T21:01:42.373Z,101312.25
2022-11-02T21:04:09.379Z,101317.00
2022-11-02T21:06:36.082Z,101316.25
2022-11-02T21:09:09.076Z,101310.09
2022-11-02T21:11:57.366Z,101318.47
2022-11-02T21:14:24.088Z,101326.84
2022-11-02T21:16:50.758Z,101319.72
2022-11-02T21:19:17.484Z,101317.94
2022-11-02T21:21:45.138Z,101326.91
2022-11-02T21:24:12.212Z,101320.63
2022-11-02T21:26:39.020Z,101319.78
2022-11-02T21:29:05.912Z,101330.50
2022-11-02T21:31:32.673Z,101326.13
2022-11-02T21:33:59.339Z,101321.81
2022-11-02T21:36:26.063Z,101327.16
2022-11-02T21:38:52.869Z,101323.81
2022-11-02T21:41:21.626Z,101318.50
2022-11-02T21:43:51.895Z,101308.63
2022-11-02T21:46:20.030Z,101317.44
2022-11-02T21:48:47.129Z,101311.28
2022-11-02T21:51:16.284Z,101314.13
2022-11-02T21:53:44.078Z,101314.56
2022-11-02T21:56:13.090Z,101318.94
2022-11-02T21:58:44.716Z,101322.53
2022-11-02T22:01:39.832Z,101318.63
2022-11-02T22:04:07.406Z,101312.69
2022-11-02T22:06:35.043Z,101315.28
2022-11-02T22:09:02.800Z,101311.00
2022-11-02T22:11:29.559Z,101316.47
2022-11-02T22:13:58.243Z,101311.13
2022-11-02T22:16:31.855Z,101316.78
2022-11-02T22:19:00.164Z,101313.63
2022-11-02T22:21:29.635Z,101314.66
2022-11-02T22:23:56.843Z,101301.78
2022-11-02T22:26:28.645Z,101309.91
2022-11-02T22:28:57.792Z,101312.47
2022-11-02T22:31:26.890Z,101308.88
2022-11-02T22:33:55.839Z,101307.25
2022-11-02T22:36:27.535Z,101310.16
2022-11-02T22:38:55.332Z,101315.22
2022-11-02T22:41:29.381Z,101311.78
2022-11-02T22:44:01.778Z,101310.16
2022-11-02T22:46:30.161Z,101304.19
2022-11-02T22:48:58.665Z,101302.41
2022-11-02T22:51:27.868Z,101297.25
2022-11-02T22:53:54.764Z,101298.97
2022-11-02T22:56:23.377Z,101298.09
2022-11-02T22:58:50.621Z,101303.66
2022-11-02T23:01:21.034Z,101305.22
2022-11-02T23:03:48.511Z,101306.31
2022-11-02T23:06:16.428Z,101303.00
2022-11-02T23:08:45.872Z,101301.28
2022-11-02T23:11:22.636Z,101302.28
2022-11-02T23:13:52.099Z,101301.44
2022-11-02T23:16:22.994Z,101305.03
2022-11-02T23:19:12.530Z,101306.88
2022-11-02T23:21:41.053Z,101304.47
2022-11-02T23:24:27.080Z,101294.59
2022-11-02T23:26:54.364Z,101296.69
2022-11-02T23:29:39.805Z,101295.69
2022-11-02T23:32:27.963Z,101295.00
2022-11-02T23:35:14.457Z,101288.34
2022-11-02T23:37:41.644Z,101285.13
2022-11-02T23:40:09.209Z,101278.41
2022-11-02T23:42:36.049Z,101287.38
2022-11-02T23:45:03.091Z,101287.59
2022-11-02T23:47:49.314Z,101283.53
2022-11-02T23:50:36.174Z,101284.72
2022-11-02T23:53:22.719Z,101281.44
2022-11-02T23:56:10.902Z,101283.50
2022-11-02T23:58:38.045Z,101289.75
